createdAt,value
2024-05-09T00:03:52.475Z,69.8
2024-05-09T00:09:28.244Z,69.7
2024-05-09T00:15:03.364Z,70
2024-05-09T00:20:41.732Z,70.4
2024-05-09T00:26:18.310Z,70.5
2024-05-09T00:31:55.098Z,70.3
2024-05-09T00:37:32.007Z,70.3
2024-05-09T00:43:07.683Z,70.6
2024-05-09T00:48:43.650Z,70.3
2024-05-09T00:54:19.897Z,70.5
2024-05-09T00:59:55.421Z,70.9
2024-05-09T01:05:31.648Z,70.2
2024-05-09T01:11:08.391Z,70.5
2024-05-09T01:16:46.303Z,71.4
2024-05-09T01:22:22.272Z,71.8
2024-05-09T01:27:57.777Z,71.5
2024-05-09T01:33:33.750Z,70.9
2024-05-09T01:39:10.727Z,71
2024-05-09T01:44:46.235Z,71.1
2024-05-09T01:50:38.329Z,70.6
2024-05-09T01:56:19.096Z,71.3
2024-05-09T02:01:58.147Z,71.6
2024-05-09T02:07:35.878Z,71.6
2024-05-09T02:13:10.879Z,71.8
2024-05-09T02:18:46.914Z,71.1
2024-05-09T02:24:23.613Z,70.8
2024-05-09T02:29:58.736Z,70.9
2024-05-09T02:35:34.774Z,70.9
2024-05-09T02:41:12.095Z,70.9
2024-05-09T02:46:48.524Z,71
2024-05-09T02:52:25.091Z,71.3
2024-05-09T02:58:00.317Z,71.9
2024-05-09T03:03:36.362Z,71.7
2024-05-09T03:09:13.686Z,71.3
2024-05-09T03:14:48.987Z,71.9
2024-05-09T03:20:33.583Z,71.7
2024-05-09T03:26:14.242Z,71.6
2024-05-09T03:31:52.226Z,71.5
2024-05-09T03:37:28.655Z,70.9
2024-05-09T03:43:04.036Z,71
2024-05-09T03:48:39.533Z,70.7
2024-05-09T03:54:16.365Z,71.7
2024-05-09T03:59:52.011Z,71.5
2024-05-09T04:05:28.085Z,72.3
2024-05-09T04:11:04.144Z,72
2024-05-09T04:16:42.661Z,71.3
2024-05-09T04:22:18.117Z,71.3
2024-05-09T04:27:53.445Z,70.8
2024-05-09T04:33:29.480Z,71.7
2024-05-09T04:39:08.412Z,71.2
2024-05-09T04:44:43.650Z,71.5
2024-05-09T04:50:35.772Z,72.3
2024-05-09T04:56:16.830Z,72
2024-05-09T05:01:52.933Z,72.3
2024-05-09T05:07:29.873Z,73.3
2024-05-09T05:13:05.577Z,72.8
2024-05-09T05:18:41.222Z,72.8
2024-05-09T05:24:18.319Z,72.5
2024-05-09T05:29:53.584Z,72.7
2024-05-09T05:35:30.122Z,72.9
2024-05-09T05:41:07.913Z,73.4
2024-05-09T05:46:44.910Z,73
2024-05-09T05:52:20.508Z,75.3
2024-05-09T05:57:55.696Z,76.4
2024-05-09T06:03:32.515Z,77.1
2024-05-09T06:09:12.486Z,77.3
2024-05-09T06:14:51.614Z,77.5
2024-05-09T06:20:38.042Z,77.5
2024-05-09T06:26:20.747Z,77.5
2024-05-09T06:32:01.454Z,77.3
2024-05-09T06:37:41.443Z,77
2024-05-09T06:43:21.238Z,77.3
2024-05-09T06:48:59.466Z,77
2024-05-09T06:54:36.359Z,75.8
2024-05-09T07:00:27.684Z,77
2024-05-09T07:06:18.220Z,77.2
2024-05-09T07:11:54.077Z,76.8
2024-05-09T07:17:30.825Z,76.2
2024-05-09T07:23:09.006Z,72.8
2024-05-09T07:28:47.566Z,74.7
2024-05-09T07:34:25.317Z,74.6
2024-05-09T07:40:02.356Z,74.4
2024-05-09T07:47:14.164Z,75.9
2024-05-09T07:59:23.648Z,75.5
2024-05-09T08:04:59.517Z,75.6
2024-05-09T08:10:36.774Z,76.4
2024-05-09T08:16:13.434Z,74.3
2024-05-09T08:21:50.755Z,74.3
2024-05-09T08:27:26.254Z,73
2024-05-09T08:33:03.046Z,72
2024-05-09T08:38:42.285Z,72.2
2024-05-09T08:44:17.358Z,70.9
2024-05-09T08:49:53.402Z,70.6
2024-05-09T08:55:29.747Z,68.5
2024-05-09T09:01:05.618Z,70.1
2024-05-09T09:06:42.816Z,68.2
2024-05-09T09:12:18.603Z,68
2024-05-09T09:17:54.164Z,68.5
2024-05-09T09:23:31.753Z,66.6
2024-05-09T09:29:08.885Z,64.1
2024-05-09T09:34:44.478Z,64.2
2024-05-09T09:40:25.793Z,58.8
2024-05-09T09:46:24.913Z,61
2024-05-09T09:52:01.892Z,59.8
2024-05-09T09:57:37.973Z,65.7
2024-05-09T10:03:14.359Z,63.1
2024-05-09T10:08:50.502Z,60.5
2024-05-09T10:14:25.903Z,57.2
2024-05-09T10:20:02.036Z,58.5
2024-05-09T10:26:03.320Z,57.4
2024-05-09T10:31:40.677Z,62.1
2024-05-09T10:37:17.267Z,61.6
2024-05-09T10:42:53.382Z,59.1
2024-05-09T10:48:29.822Z,60.3
2024-05-09T10:54:06.650Z,57.1
2024-05-09T10:59:41.776Z,58.4
2024-05-09T11:05:17.868Z,53.2
2024-05-09T11:10:55.603Z,53
2024-05-09T11:16:31.716Z,50.2
2024-05-09T11:22:08.137Z,51.2
2024-05-09T11:27:45.421Z,50.1
2024-05-09T11:33:22.731Z,51.5
2024-05-09T11:38:58.162Z,50.4
2024-05-09T11:44:33.645Z,52.2
2024-05-09T11:50:22.368Z,52.1
2024-05-09T11:56:12.540Z,48.9
2024-05-09T12:01:48.701Z,51.5
2024-05-09T12:07:26.198Z,48.5
2024-05-09T12:13:04.493Z,47.7
2024-05-09T12:18:45.917Z,53
2024-05-09T12:24:22.669Z,48.2
2024-05-09T12:29:59.150Z,48.4
2024-05-09T12:35:34.627Z,50.6
2024-05-09T12:41:10.174Z,45.6
2024-05-09T12:46:45.484Z,46.3
2024-05-09T12:52:21.680Z,43.1
2024-05-09T12:57:58.337Z,43.8
2024-05-09T13:03:35.393Z,41.5
2024-05-09T13:09:12.870Z,39.7
2024-05-09T13:14:48.494Z,34.2
2024-05-09T13:20:33.537Z,22.2
2024-05-09T13:26:12.952Z,17.8
2024-05-09T13:31:48.260Z,18.5
2024-05-09T13:37:23.699Z,16.7
2024-05-09T13:42:59.895Z,14.5
2024-05-09T13:48:37.693Z,14.9
2024-05-09T13:54:14.562Z,14.3
2024-05-09T13:59:57.662Z,13.5
2024-05-09T14:05:33.402Z,11.9
2024-05-09T14:11:10.860Z,12.6
2024-05-09T14:16:47.304Z,13.4
2024-05-09T14:22:24.991Z,11.6
2024-05-09T14:28:00.685Z,11.8
2024-05-09T14:33:37.139Z,14.2
2024-05-09T14:39:14.532Z,12.7
2024-05-09T14:44:50.090Z,12.6
2024-05-09T14:50:38.342Z,12.6
2024-05-09T14:56:16.656Z,12
2024-05-09T15:01:52.476Z,12.4
2024-05-09T15:07:30.029Z,12.9
2024-05-09T15:13:09.603Z,13.2
2024-05-09T15:18:53.462Z,13.7
2024-05-09T15:24:30.857Z,14.4
2024-05-09T15:30:11.075Z,13.6
2024-05-09T15:36:08.408Z,15.8
2024-05-09T15:41:43.895Z,20.1
2024-05-09T15:47:19.086Z,14.6
2024-05-09T15:52:54.608Z,12.9
2024-05-09T15:58:31.930Z,13.7
2024-05-09T16:04:08.065Z,13.5
2024-05-09T16:09:45.389Z,14.4
2024-05-09T16:15:21.312Z,13.9
2024-05-09T16:20:56.526Z,15.1
2024-05-09T16:26:31.867Z,14.4
2024-05-09T16:32:07.869Z,14.5
2024-05-09T16:37:44.600Z,15.1
2024-05-09T16:43:20.140Z,14.7
2024-05-09T16:48:57.606Z,15.1
2024-05-09T16:54:34.004Z,14.4
2024-05-09T17:00:26.131Z,20.2
2024-05-09T17:06:20.800Z,27.2
2024-05-09T17:11:55.431Z,31.4
2024-05-09T17:17:30.720Z,33.5
2024-05-09T17:23:07.596Z,38.5
2024-05-09T17:28:42.259Z,37
2024-05-09T17:34:17.695Z,37.8
2024-05-09T17:39:55.546Z,39.2
2024-05-09T17:45:32.575Z,42.9
2024-05-09T17:51:09.869Z,41.7
2024-05-09T17:56:45.260Z,41.7
2024-05-09T18:02:20.978Z,42.6
2024-05-09T18:07:58.092Z,44.3
2024-05-09T18:13:35.286Z,46.1
2024-05-09T18:19:13.792Z,46.1
2024-05-09T18:24:51.578Z,47
2024-05-09T18:30:35.739Z,47.8
2024-05-09T18:36:15.903Z,49.2
2024-05-09T18:41:53.939Z,49.3
2024-05-09T18:47:30.083Z,50.6
2024-05-09T18:53:09.150Z,51.1
2024-05-09T18:58:46.331Z,50.7
2024-05-09T19:04:22.402Z,50.1
2024-05-09T19:09:59.891Z,51
2024-05-09T19:15:36.025Z,54.3
2024-05-09T19:21:12.961Z,54.3
2024-05-09T19:26:48.330Z,55.7
2024-05-09T19:32:23.973Z,55
2024-05-09T19:38:01.221Z,55.7
2024-05-09T19:43:37.061Z,55.4
2024-05-09T19:49:13.734Z,57.3
2024-05-09T19:54:51.236Z,57.9
2024-05-09T20:00:36.649Z,58.6
2024-05-09T20:06:20.278Z,57.5
2024-05-09T20:11:56.523Z,59.1
2024-05-09T20:17:33.157Z,59.6
2024-05-09T20:23:10.341Z,57.5
2024-05-09T20:28:47.149Z,61.7
2024-05-09T20:34:23.042Z,60.9
2024-05-09T20:39:59.715Z,61.5
2024-05-09T20:45:37.072Z,63.3
2024-05-09T20:51:19.062Z,59.5
2024-05-09T20:56:54.331Z,59.2
2024-05-09T21:02:30.457Z,59
2024-05-09T21:08:07.349Z,58.6
2024-05-09T21:13:43.177Z,58.5
2024-05-09T21:19:19.040Z,58.1
2024-05-09T21:24:55.982Z,58.2
2024-05-09T21:30:42.929Z,58.6
2024-05-09T21:36:19.507Z,58.6
2024-05-09T21:41:55.281Z,58.8
2024-05-09T21:47:31.422Z,59.2
2024-05-09T21:53:08.343Z,59.4
2024-05-09T21:58:44.908Z,60.1
2024-05-09T22:04:20.252Z,60.3
2024-05-09T22:09:57.917Z,61.1
2024-05-09T22:15:34.549Z,61.5
2024-05-09T22:21:15.480Z,61.6
2024-05-09T22:26:50.994Z,61.7
2024-05-09T22:32:26.222Z,61.7
2024-05-09T22:38:03.170Z,61.9
2024-05-09T22:43:38.652Z,62.1
2024-05-09T22:49:14.193Z,62.2
2024-05-09T22:54:51.145Z,62.7
2024-05-09T23:00:33.123Z,62.1
2024-05-09T23:06:11.074Z,62.2
2024-05-09T23:11:46.490Z,62.9
2024-05-09T23:17:22.533Z,63
2024-05-09T23:22:58.892Z,62.6
2024-05-09T23:28:35.056Z,62.9
2024-05-09T23:34:12.663Z,62.9
2024-05-09T23:39:49.914Z,63.5
2024-05-09T23:45:26.010Z,63.9
2024-05-09T23:51:01.544Z,63.7
2024-05-09T23:56:36.737Z,64.1
